createdAt,value
2022-10-12T00:01:28.807Z,13.60
2022-10-12T00:03:57.524Z,13.60
2022-10-12T00:06:27.107Z,13.60
2022-10-12T00:08:56.750Z,13.60
2022-10-12T00:11:29.293Z,13.60
2022-10-12T00:14:00.376Z,13.50
2022-10-12T00:16:31.585Z,13.50
2022-10-12T00:19:00.701Z,13.50
2022-10-12T00:21:31.617Z,13.50
2022-10-12T00:24:01.821Z,13.50
2022-10-12T00:26:33.391Z,13.50
2022-10-12T00:29:04.918Z,13.40
2022-10-12T00:31:33.895Z,13.40
2022-10-12T00:34:04.042Z,13.40
2022-10-12T00:36:35.814Z,13.40
2022-10-12T00:39:08.441Z,13.40
2022-10-12T00:41:40.781Z,13.40
2022-10-12T00:44:40.262Z,13.30
2022-10-12T00:47:24.476Z,13.30
2022-10-12T00:49:58.445Z,13.30
2022-10-12T00:52:33.788Z,13.30
2022-10-12T00:55:02.881Z,13.30
2022-10-12T00:57:31.633Z,13.30
2022-10-12T01:00:08.705Z,13.30
2022-10-12T01:02:39.903Z,13.30
2022-10-12T01:05:10.257Z,13.30
2022-10-12T01:07:39.551Z,13.20
2022-10-12T01:10:09.542Z,13.30
2022-10-12T01:12:40.441Z,13.20
2022-10-12T01:15:12.632Z,13.20
2022-10-12T01:17:54.416Z,13.20
2022-10-12T01:21:01.153Z,13.20
2022-10-12T01:23:57.082Z,13.20
2022-10-12T01:27:06.313Z,13.10
2022-10-12T01:30:07.361Z,13.10
2022-10-12T01:33:15.366Z,13.10
2022-10-12T01:35:54.667Z,13.10
2022-10-12T01:38:45.679Z,13.00
2022-10-12T01:41:20.090Z,13.10
2022-10-12T01:43:48.746Z,13.00
2022-10-12T01:46:47.834Z,13.00
2022-10-12T01:49:20.448Z,13.00
2022-10-12T01:52:03.211Z,13.00
2022-10-12T01:54:49.777Z,13.00
2022-10-12T01:57:27.889Z,13.00
2022-10-12T02:00:07.634Z,12.90
2022-10-12T02:02:50.495Z,12.90
2022-10-12T02:05:30.323Z,12.90
2022-10-12T02:08:05.931Z,12.90
2022-10-12T02:10:44.608Z,12.90
2022-10-12T02:13:16.580Z,12.90
2022-10-12T02:15:46.235Z,12.80
2022-10-12T02:18:20.835Z,12.80
2022-10-12T02:20:54.078Z,12.80
2022-10-12T02:23:25.648Z,12.80
2022-10-12T02:25:59.290Z,12.80
2022-10-12T02:28:33.933Z,12.80
2022-10-12T02:31:10.853Z,12.70
2022-10-12T02:33:57.067Z,12.80
2022-10-12T02:36:37.042Z,12.70
2022-10-12T02:39:24.544Z,12.70
2022-10-12T02:42:16.001Z,12.70
2022-10-12T02:44:53.939Z,12.70
2022-10-12T02:47:28.651Z,12.70
2022-10-12T02:50:05.186Z,12.70
2022-10-12T02:52:40.034Z,12.70
2022-10-12T02:55:14.657Z,12.60
2022-10-12T02:57:54.174Z,12.60
2022-10-12T03:00:24.782Z,12.60
2022-10-12T03:02:57.074Z,12.60
2022-10-12T03:05:31.727Z,12.60
2022-10-12T03:08:02.905Z,12.50
2022-10-12T03:10:35.127Z,12.60
2022-10-12T03:13:07.527Z,12.50
2022-10-12T03:15:39.669Z,12.50
2022-10-12T03:18:17.443Z,12.50
2022-10-12T03:21:03.032Z,12.50
2022-10-12T03:23:38.533Z,12.50
2022-10-12T03:26:15.667Z,12.50
2022-10-12T03:28:47.673Z,12.40
2022-10-12T03:31:21.711Z,12.40
2022-10-12T03:33:59.038Z,12.40
2022-10-12T03:36:47.942Z,12.40
2022-10-12T03:39:32.080Z,12.40
2022-10-12T03:42:06.707Z,12.40
2022-10-12T03:44:46.540Z,12.40
2022-10-12T03:47:28.857Z,12.40
2022-10-12T03:50:04.259Z,12.40
2022-10-12T03:53:04.651Z,12.40
2022-10-12T03:55:41.126Z,12.40
2022-10-12T03:58:16.211Z,12.30
2022-10-12T04:00:57.209Z,12.30
2022-10-12T04:03:31.645Z,12.30
2022-10-12T04:06:03.820Z,12.30
2022-10-12T04:08:50.508Z,12.30
2022-10-12T04:11:41.976Z,12.30
2022-10-12T04:14:30.472Z,12.30
2022-10-12T04:17:13.013Z,12.20
2022-10-12T04:19:46.934Z,12.20
2022-10-12T04:22:26.186Z,12.20
2022-10-12T04:25:20.117Z,12.20
2022-10-12T04:27:53.774Z,12.20
2022-10-12T04:30:27.338Z,12.20
2022-10-12T04:33:04.225Z,12.20
2022-10-12T04:36:01.407Z,12.20
2022-10-12T04:38:36.150Z,12.20
2022-10-12T04:41:10.404Z,12.10
2022-10-12T04:43:52.123Z,12.10
2022-10-12T04:46:24.841Z,12.10
2022-10-12T04:48:57.562Z,12.10
2022-10-12T04:51:38.544Z,12.10
2022-10-12T04:54:17.615Z,12.10
2022-10-12T04:57:11.766Z,12.10
2022-10-12T04:59:55.054Z,12.10
2022-10-12T05:02:32.847Z,12.10
2022-10-12T05:05:24.095Z,12.10
2022-10-12T05:08:06.599Z,12.10
2022-10-12T05:10:44.602Z,12.10
2022-10-12T05:13:40.992Z,12.10
2022-10-12T05:16:28.899Z,12.10
2022-10-12T05:19:08.668Z,12.10
2022-10-12T05:21:54.455Z,12.10
2022-10-12T05:24:35.201Z,12.10
2022-10-12T05:27:13.211Z,12.10
2022-10-12T05:30:09.604Z,12.10
2022-10-12T05:32:55.052Z,12.10
2022-10-12T05:35:34.157Z,12.10
2022-10-12T05:38:12.557Z,12.10
2022-10-12T05:41:00.084Z,12.10
2022-10-12T05:47:06.108Z,12.10
2022-10-12T05:49:48.184Z,12.10
2022-10-12T05:52:44.074Z,12.00
2022-10-12T05:55:23.934Z,12.00
2022-10-12T05:57:57.986Z,12.00
2022-10-12T06:00:35.002Z,12.00
2022-10-12T06:04:03.854Z,12.00
2022-10-12T06:06:40.712Z,12.00
2022-10-12T06:09:14.955Z,12.00
2022-10-12T06:11:53.655Z,11.90
2022-10-12T06:14:43.217Z,11.90
2022-10-12T06:17:24.587Z,11.90
2022-10-12T06:20:15.574Z,11.90
2022-10-12T06:23:03.456Z,11.90
2022-10-12T06:25:55.135Z,11.90
2022-10-12T06:28:28.357Z,11.90
2022-10-12T06:31:06.194Z,11.80
2022-10-12T06:33:46.947Z,11.80
2022-10-12T06:40:24.429Z,11.80
2022-10-12T06:43:52.238Z,11.80
2022-10-12T06:46:39.289Z,11.80
2022-10-12T06:50:15.821Z,11.80
2022-10-12T06:53:27.903Z,11.80
2022-10-12T06:56:46.763Z,11.80
2022-10-12T06:59:26.663Z,11.70
2022-10-12T07:02:11.693Z,11.80
2022-10-12T07:04:52.167Z,11.80
2022-10-12T07:07:29.970Z,11.80
2022-10-12T07:10:11.780Z,11.80
2022-10-12T07:12:54.822Z,11.80
2022-10-12T07:15:41.235Z,11.90
2022-10-12T07:18:16.635Z,11.90
2022-10-12T07:20:51.960Z,11.90
2022-10-12T07:23:25.857Z,12.00
2022-10-12T07:26:28.673Z,12.00
2022-10-12T07:29:06.364Z,12.10
2022-10-12T07:31:51.977Z,12.10
2022-10-12T07:34:49.286Z,12.10
2022-10-12T07:37:56.879Z,12.20
2022-10-12T07:40:40.842Z,12.20
2022-10-12T07:43:16.322Z,12.20
2022-10-12T07:45:52.152Z,12.30
2022-10-12T07:48:29.252Z,12.30
2022-10-12T07:51:06.665Z,12.30
2022-10-12T07:53:39.894Z,12.30
2022-10-12T07:56:15.695Z,12.40
2022-10-12T07:58:58.461Z,12.40
2022-10-12T08:01:33.352Z,12.40
2022-10-12T08:04:08.182Z,12.40
2022-10-12T08:06:40.875Z,12.50
2022-10-12T08:09:18.025Z,12.50
2022-10-12T08:11:51.049Z,12.60
2022-10-12T08:14:43.085Z,12.70
2022-10-12T08:17:26.413Z,12.70
2022-10-12T08:19:59.333Z,12.80
2022-10-12T08:22:39.628Z,12.80
2022-10-12T08:25:15.134Z,12.90
2022-10-12T08:27:48.362Z,12.90
2022-10-12T08:30:27.381Z,13.00
2022-10-12T08:32:59.035Z,13.10
2022-10-12T08:35:46.725Z,13.20
2022-10-12T08:38:22.812Z,13.20
2022-10-12T08:41:10.255Z,13.30
2022-10-12T08:44:20.876Z,13.40
2022-10-12T08:47:00.087Z,13.40
2022-10-12T08:49:40.587Z,13.50
2022-10-12T08:52:26.920Z,13.50
2022-10-12T08:55:13.839Z,13.60
2022-10-12T08:57:50.028Z,13.60
2022-10-12T09:00:29.989Z,13.70
2022-10-12T09:03:42.766Z,13.70
2022-10-12T09:06:27.668Z,13.80
2022-10-12T09:09:38.905Z,13.90
2022-10-12T09:12:34.292Z,13.90
2022-10-12T09:15:22.712Z,14.00
2022-10-12T09:18:03.331Z,14.10
2022-10-12T09:20:49.523Z,14.20
2022-10-12T09:23:38.795Z,14.20
2022-10-12T09:26:29.191Z,14.30
2022-10-12T09:29:05.027Z,14.40
2022-10-12T09:32:00.082Z,14.50
2022-10-12T09:34:32.789Z,14.50
2022-10-12T09:37:24.379Z,14.60
2022-10-12T09:40:00.365Z,14.60
2022-10-12T09:42:39.043Z,14.60
2022-10-12T09:45:22.514Z,14.70
2022-10-12T09:48:24.077Z,14.70
2022-10-12T09:51:13.126Z,14.70
2022-10-12T09:54:19.721Z,14.80
2022-10-12T09:56:56.486Z,14.80
2022-10-12T09:59:48.574Z,14.80
2022-10-12T10:02:31.204Z,14.80
2022-10-12T10:05:26.847Z,14.90
2022-10-12T10:08:30.197Z,14.90
2022-10-12T10:11:17.090Z,14.90
2022-10-12T10:13:56.957Z,15.00
2022-10-12T10:16:51.229Z,15.00
2022-10-12T10:19:36.755Z,15.00
2022-10-12T10:22:23.746Z,15.10
2022-10-12T10:34:12.873Z,15.30
2022-10-12T10:36:57.225Z,15.40
2022-10-12T10:39:30.039Z,15.50
2022-10-12T10:42:13.581Z,15.50
2022-10-12T10:44:49.360Z,15.50
2022-10-12T10:47:19.689Z,15.60
2022-10-12T10:49:57.289Z,15.60
2022-10-12T10:52:31.504Z,15.70
2022-10-12T10:55:20.910Z,15.70
2022-10-12T10:58:02.920Z,15.80
2022-10-12T11:00:40.451Z,15.80
2022-10-12T11:03:18.392Z,15.80
2022-10-12T11:05:56.277Z,15.90
2022-10-12T11:08:30.409Z,15.90
2022-10-12T11:11:04.136Z,16.00
2022-10-12T11:13:37.494Z,16.00
2022-10-12T11:16:18.653Z,16.00
2022-10-12T11:18:59.541Z,16.10
2022-10-12T11:21:40.957Z,16.10
2022-10-12T11:24:18.792Z,16.20
2022-10-12T11:26:54.925Z,16.30
2022-10-12T11:29:24.646Z,16.30
2022-10-12T11:31:59.342Z,16.40
2022-10-12T11:34:33.878Z,16.40
2022-10-12T11:37:19.192Z,16.50
2022-10-12T11:39:56.184Z,16.50
2022-10-12T11:42:42.404Z,16.60
2022-10-12T11:45:27.159Z,16.60
2022-10-12T11:48:03.368Z,16.70
2022-10-12T11:50:37.810Z,16.80
2022-10-12T11:53:22.798Z,16.80
2022-10-12T11:56:08.548Z,16.90
2022-10-12T11:59:00.561Z,16.90
2022-10-12T12:01:49.735Z,16.90
2022-10-12T12:08:01.483Z,17.00
2022-10-12T12:11:26.159Z,17.00
2022-10-12T12:14:52.126Z,17.00
2022-10-12T12:17:32.509Z,17.10
2022-10-12T12:21:01.059Z,17.10
2022-10-12T12:26:49.397Z,17.10
2022-10-12T12:29:30.326Z,17.20
2022-10-12T12:32:03.749Z,17.20
2022-10-12T12:34:32.837Z,17.20
2022-10-12T12:37:14.721Z,17.30
2022-10-12T12:39:49.513Z,17.40
2022-10-12T12:42:25.560Z,17.40
2022-10-12T12:45:16.523Z,17.40
2022-10-12T12:47:52.766Z,17.40
2022-10-12T12:50:35.680Z,17.50
2022-10-12T12:53:11.774Z,17.50
2022-10-12T12:56:04.576Z,17.60
2022-10-12T12:59:01.433Z,17.60
2022-10-12T13:01:52.510Z,17.60
2022-10-12T13:05:05.446Z,17.70
2022-10-12T13:08:04.153Z,17.70
2022-10-12T13:10:48.606Z,17.70
2022-10-12T13:13:50.107Z,17.70
2022-10-12T13:19:50.131Z,17.80
2022-10-12T13:22:29.424Z,17.80
2022-10-12T13:25:03.977Z,17.90
2022-10-12T13:27:39.757Z,17.90
2022-10-12T13:30:30.459Z,17.90
2022-10-12T13:33:09.770Z,17.90
2022-10-12T13:35:45.531Z,17.90
2022-10-12T13:38:24.269Z,17.90
2022-10-12T13:41:02.683Z,17.90
2022-10-12T13:43:39.743Z,17.90
2022-10-12T13:46:08.943Z,17.90
2022-10-12T13:48:59.790Z,18.00
2022-10-12T13:51:32.668Z,17.90
2022-10-12T13:54:01.858Z,18.00
2022-10-12T13:56:34.263Z,18.00
2022-10-12T13:59:07.122Z,18.00
2022-10-12T14:01:53.739Z,18.00
2022-10-12T14:04:31.557Z,18.00
2022-10-12T14:07:05.893Z,18.00
2022-10-12T14:09:43.540Z,18.00
2022-10-12T14:12:20.611Z,18.00
2022-10-12T14:14:55.967Z,18.10
2022-10-12T14:17:29.187Z,18.10
2022-10-12T14:20:27.249Z,18.10
2022-10-12T14:22:59.880Z,18.10
2022-10-12T14:25:32.052Z,18.10
2022-10-12T14:28:05.176Z,18.20
2022-10-12T14:30:46.501Z,18.20
2022-10-12T14:33:34.515Z,18.20
2022-10-12T14:36:33.763Z,18.20
2022-10-12T14:39:44.393Z,18.20
2022-10-12T14:42:30.242Z,18.20
2022-10-12T14:45:39.208Z,18.10
2022-10-12T14:48:30.710Z,18.20
2022-10-12T14:55:05.269Z,18.10
2022-10-12T14:57:41.062Z,18.10
2022-10-12T15:00:21.202Z,18.10
2022-10-12T15:03:21.057Z,18.10
2022-10-12T15:10:35.097Z,18.10
2022-10-12T15:14:18.242Z,18.10
2022-10-12T15:16:49.270Z,18.10
2022-10-12T15:19:18.893Z,18.10
2022-10-12T15:21:48.493Z,18.10
2022-10-12T15:24:22.188Z,18.10
2022-10-12T15:26:56.382Z,18.10
2022-10-12T15:29:28.036Z,18.00
2022-10-12T15:32:02.008Z,18.00
2022-10-12T15:34:42.711Z,18.00
2022-10-12T15:37:16.955Z,18.00
2022-10-12T15:40:00.066Z,18.00
2022-10-12T15:42:41.055Z,18.00
2022-10-12T15:45:30.351Z,18.00
2022-10-12T15:48:15.367Z,17.90
2022-10-12T15:51:04.930Z,17.90
2022-10-12T15:54:03.895Z,17.90
2022-10-12T15:57:26.773Z,17.80
2022-10-12T16:00:20.135Z,17.80
2022-10-12T16:03:06.889Z,17.70
2022-10-12T16:05:58.043Z,17.70
2022-10-12T16:08:41.343Z,17.70
2022-10-12T16:12:16.550Z,17.60
2022-10-12T16:14:47.441Z,17.60
2022-10-12T16:17:18.549Z,17.60
2022-10-12T16:19:48.078Z,17.60
2022-10-12T16:22:17.791Z,17.50
2022-10-12T16:24:46.889Z,17.50
2022-10-12T16:28:23.752Z,17.50
2022-10-12T16:30:39.787Z,17.50
2022-10-12T16:33:11.359Z,17.50
2022-10-12T16:35:46.869Z,17.40
2022-10-12T16:38:17.494Z,17.40
2022-10-12T16:40:48.681Z,17.40
2022-10-12T16:43:25.351Z,17.40
2022-10-12T16:45:58.609Z,17.40
2022-10-12T16:48:30.342Z,17.30
2022-10-12T16:51:04.488Z,17.30
2022-10-12T16:53:34.973Z,17.30
2022-10-12T16:56:04.219Z,17.30
2022-10-12T16:58:33.097Z,17.30
2022-10-12T17:01:11.274Z,17.20
2022-10-12T17:03:42.252Z,17.20
2022-10-12T17:06:12.432Z,17.20
2022-10-12T17:08:44.113Z,17.20
2022-10-12T17:11:17.082Z,17.10
2022-10-12T17:13:49.185Z,17.10
2022-10-12T17:16:37.084Z,17.10
2022-10-12T17:19:08.299Z,17.00
2022-10-12T17:21:42.070Z,17.00
2022-10-12T17:24:12.697Z,17.00
2022-10-12T17:26:45.027Z,17.00
2022-10-12T17:29:18.828Z,17.00
2022-10-12T17:31:50.375Z,16.90
2022-10-12T17:34:23.638Z,16.90
2022-10-12T17:36:54.768Z,16.90
2022-10-12T17:39:24.177Z,16.90
2022-10-12T17:41:53.356Z,16.90
2022-10-12T17:44:23.441Z,16.80
2022-10-12T17:46:54.671Z,16.80
2022-10-12T17:49:29.143Z,16.80
2022-10-12T17:51:58.347Z,16.80
2022-10-12T17:54:28.056Z,16.80
2022-10-12T17:56:58.556Z,16.80
2022-10-12T17:59:28.650Z,16.70
2022-10-12T18:01:57.995Z,16.70
2022-10-12T18:04:28.652Z,16.70
2022-10-12T18:06:57.792Z,16.70
2022-10-12T18:09:26.772Z,16.70
2022-10-12T18:11:55.949Z,16.70
2022-10-12T18:14:24.781Z,16.70
2022-10-12T18:16:54.423Z,16.60
2022-10-12T18:19:25.079Z,16.60
2022-10-12T18:21:56.550Z,16.60
2022-10-12T18:24:25.389Z,16.60
2022-10-12T18:26:55.658Z,16.60
2022-10-12T18:29:24.610Z,16.60
2022-10-12T18:31:57.293Z,16.60
2022-10-12T18:34:26.793Z,16.60
2022-10-12T18:36:58.316Z,16.50
2022-10-12T18:39:29.883Z,16.60
2022-10-12T18:42:13.477Z,16.60
2022-10-12T18:44:49.378Z,16.50
2022-10-12T18:47:45.855Z,16.50
2022-10-12T18:50:20.005Z,16.50
2022-10-12T18:52:50.806Z,16.50
2022-10-12T18:55:19.710Z,16.40
2022-10-12T18:57:49.627Z,16.40
2022-10-12T19:00:22.169Z,16.40
2022-10-12T19:02:51.047Z,16.40
2022-10-12T19:05:20.022Z,16.40
2022-10-12T19:07:50.540Z,16.30
2022-10-12T19:10:20.119Z,16.30
2022-10-12T19:12:51.395Z,16.30
2022-10-12T19:15:21.950Z,16.30
2022-10-12T19:17:55.604Z,16.30
2022-10-12T19:20:24.510Z,16.20
2022-10-12T19:22:57.036Z,16.20
2022-10-12T19:25:27.618Z,16.20
2022-10-12T19:27:58.133Z,16.20
2022-10-12T19:30:29.618Z,16.20
2022-10-12T19:33:01.350Z,16.10
2022-10-12T19:35:30.484Z,16.10
2022-10-12T19:38:03.175Z,16.10
2022-10-12T19:40:32.732Z,16.00
2022-10-12T19:43:01.473Z,16.00
2022-10-12T19:45:31.716Z,16.00
2022-10-12T19:48:00.832Z,16.00
2022-10-12T19:50:29.777Z,16.00
2022-10-12T19:53:00.534Z,15.90
2022-10-12T19:55:32.950Z,15.90
2022-10-12T19:58:02.616Z,15.90
2022-10-12T20:00:34.240Z,15.90
2022-10-12T20:03:03.216Z,15.90
2022-10-12T20:05:32.197Z,15.80
2022-10-12T20:08:03.007Z,15.80
2022-10-12T20:10:34.544Z,15.80
2022-10-12T20:13:03.115Z,15.80
2022-10-12T20:15:32.061Z,15.70
2022-10-12T20:18:00.754Z,15.70
2022-10-12T20:20:29.739Z,15.70
2022-10-12T20:22:58.467Z,15.70
2022-10-12T20:25:28.919Z,15.70
2022-10-12T20:28:02.647Z,15.70
2022-10-12T20:30:31.295Z,15.70
2022-10-12T20:33:00.766Z,15.70
2022-10-12T20:35:30.154Z,15.70
2022-10-12T20:37:58.701Z,15.70
2022-10-12T20:40:29.655Z,15.70
2022-10-12T20:42:58.701Z,15.70
2022-10-12T20:45:27.353Z,15.60
2022-10-12T20:47:56.436Z,15.60
2022-10-12T20:50:25.206Z,15.70
2022-10-12T20:52:54.244Z,15.70
2022-10-12T20:55:23.545Z,15.60
2022-10-12T20:57:54.021Z,15.60
2022-10-12T21:00:23.433Z,15.60
2022-10-12T21:02:52.101Z,15.60
2022-10-12T21:05:20.995Z,15.60
2022-10-12T21:07:49.751Z,15.60
2022-10-12T21:10:18.862Z,15.50
2022-10-12T21:12:51.891Z,15.50
2022-10-12T21:15:21.827Z,15.50
2022-10-12T21:17:50.908Z,15.50
2022-10-12T21:20:22.353Z,15.50
2022-10-12T21:22:50.995Z,15.50
2022-10-12T21:25:19.500Z,15.40
2022-10-12T21:27:48.507Z,15.50
2022-10-12T21:30:18.428Z,15.40
2022-10-12T21:32:51.463Z,15.40
2022-10-12T21:35:20.713Z,15.40
2022-10-12T21:37:49.215Z,15.40
2022-10-12T21:40:18.243Z,15.40
2022-10-12T21:42:46.971Z,15.40
2022-10-12T21:45:18.353Z,15.40
2022-10-12T21:47:48.779Z,15.40
2022-10-12T21:50:17.788Z,15.40
2022-10-12T21:52:49.788Z,15.30
2022-10-12T21:55:18.859Z,15.30
